sensor_id;sensor_type;location;lat;lon;timestamp;P1;durP1;ratioP1;P2;durP2;ratioP2
53108;SDS011;39007;53.090;6.074;2022-08-21T00:01:59;9.80;;;4.07;;
53108;SDS011;39007;53.090;6.074;2022-08-21T00:04:26;7.97;;;3.90;;
53108;SDS011;39007;53.090;6.074;2022-08-21T00:06:52;11.88;;;4.55;;
53108;SDS011;39007;53.090;6.074;2022-08-21T00:09:19;11.68;;;4.70;;
53108;SDS011;39007;53.090;6.074;2022-08-21T00:11:46;7.82;;;4.30;;
53108;SDS011;39007;53.090;6.074;2022-08-21T00:14:12;9.25;;;4.20;;
53108;SDS011;39007;53.090;6.074;2022-08-21T00:16:39;9.88;;;4.43;;
53108;SDS011;39007;53.090;6.074;2022-08-21T00:19:06;9.10;;;4.10;;
53108;SDS011;39007;53.090;6.074;2022-08-21T00:21:32;8.45;;;3.40;;
53108;SDS011;39007;53.090;6.074;2022-08-21T00:23:59;7.22;;;3.78;;
53108;SDS011;39007;53.090;6.074;2022-08-21T00:26:25;7.55;;;3.30;;
53108;SDS011;39007;53.090;6.074;2022-08-21T00:28:51;9.57;;;4.05;;
53108;SDS011;39007;53.090;6.074;2022-08-21T00:31:17;8.13;;;4.30;;
53108;SDS011;39007;53.090;6.074;2022-08-21T00:33:44;9.70;;;4.40;;
53108;SDS011;39007;53.090;6.074;2022-08-21T00:36:10;8.75;;;4.28;;
53108;SDS011;39007;53.090;6.074;2022-08-21T00:38:37;6.72;;;4.10;;
53108;SDS011;39007;53.090;6.074;2022-08-21T00:41:04;8.13;;;4.22;;
53108;SDS011;39007;53.090;6.074;2022-08-21T00:43:31;6.47;;;3.53;;
53108;SDS011;39007;53.090;6.074;2022-08-21T00:45:58;6.32;;;3.53;;
53108;SDS011;39007;53.090;6.074;2022-08-21T00:48:24;5.00;;;2.97;;
53108;SDS011;39007;53.090;6.074;2022-08-21T00:50:58;12.77;;;3.55;;
53108;SDS011;39007;53.090;6.074;2022-08-21T00:53:25;6.10;;;3.92;;
53108;SDS011;39007;53.090;6.074;2022-08-21T00:55:52;6.93;;;3.65;;
53108;SDS011;39007;53.090;6.074;2022-08-21T00:58:19;7.70;;;3.80;;
53108;SDS011;39007;53.090;6.074;2022-08-21T01:00:46;6.88;;;4.15;;
53108;SDS011;39007;53.090;6.074;2022-08-21T01:03:14;6.28;;;4.05;;
53108;SDS011;39007;53.090;6.074;2022-08-21T01:05:41;5.43;;;2.97;;
53108;SDS011;39007;53.090;6.074;2022-08-21T01:08:08;5.10;;;3.00;;
53108;SDS011;39007;53.090;6.074;2022-08-21T01:10:34;4.00;;;2.25;;
53108;SDS011;39007;53.090;6.074;2022-08-21T01:13:01;16.98;;;3.67;;
53108;SDS011;39007;53.090;6.074;2022-08-21T01:15:29;4.07;;;2.60;;
53108;SDS011;39007;53.090;6.074;2022-08-21T01:17:56;4.05;;;2.50;;
53108;SDS011;39007;53.090;6.074;2022-08-21T01:20:22;5.05;;;2.08;;
53108;SDS011;39007;53.090;6.074;2022-08-21T01:22:48;4.97;;;2.58;;
53108;SDS011;39007;53.090;6.074;2022-08-21T01:25:15;5.55;;;3.15;;
53108;SDS011;39007;53.090;6.074;2022-08-21T01:27:42;6.70;;;3.08;;
53108;SDS011;39007;53.090;6.074;2022-08-21T01:30:10;4.88;;;3.40;;
53108;SDS011;39007;53.090;6.074;2022-08-21T01:32:37;7.20;;;3.63;;
53108;SDS011;39007;53.090;6.074;2022-08-21T01:35:03;7.45;;;4.15;;
53108;SDS011;39007;53.090;6.074;2022-08-21T01:37:30;6.43;;;3.80;;
53108;SDS011;39007;53.090;6.074;2022-08-21T01:39:56;5.80;;;3.75;;
53108;SDS011;39007;53.090;6.074;2022-08-21T01:42:22;7.90;;;4.18;;
53108;SDS011;39007;53.090;6.074;2022-08-21T01:44:49;6.55;;;3.95;;
53108;SDS011;39007;53.090;6.074;2022-08-21T01:47:15;7.38;;;3.75;;
53108;SDS011;39007;53.090;6.074;2022-08-21T01:49:41;7.50;;;4.38;;
53108;SDS011;39007;53.090;6.074;2022-08-21T01:52:08;10.40;;;4.90;;
53108;SDS011;39007;53.090;6.074;2022-08-21T01:54:34;8.55;;;4.57;;
53108;SDS011;39007;53.090;6.074;2022-08-21T01:57:01;9.05;;;4.88;;
53108;SDS011;39007;53.090;6.074;2022-08-21T01:59:27;10.75;;;4.97;;
53108;SDS011;39007;53.090;6.074;2022-08-21T02:01:54;9.32;;;4.90;;
53108;SDS011;39007;53.090;6.074;2022-08-21T02:04:20;10.00;;;5.13;;
53108;SDS011;39007;53.090;6.074;2022-08-21T02:06:47;11.60;;;5.00;;
53108;SDS011;39007;53.090;6.074;2022-08-21T02:09:13;11.48;;;4.95;;
53108;SDS011;39007;53.090;6.074;2022-08-21T02:11:40;8.77;;;5.25;;
53108;SDS011;39007;53.090;6.074;2022-08-21T02:14:10;10.45;;;6.32;;
53108;SDS011;39007;53.090;6.074;2022-08-21T02:16:37;9.55;;;5.50;;
53108;SDS011;39007;53.090;6.074;2022-08-21T02:19:04;13.70;;;5.65;;
53108;SDS011;39007;53.090;6.074;2022-08-21T02:21:30;11.02;;;5.80;;
53108;SDS011;39007;53.090;6.074;2022-08-21T02:23:56;10.57;;;5.90;;
53108;SDS011;39007;53.090;6.074;2022-08-21T02:26:23;13.15;;;6.35;;
53108;SDS011;39007;53.090;6.074;2022-08-21T02:28:49;9.80;;;5.63;;
53108;SDS011;39007;53.090;6.074;2022-08-21T02:31:15;13.32;;;5.97;;
53108;SDS011;39007;53.090;6.074;2022-08-21T02:33:41;12.88;;;6.20;;
53108;SDS011;39007;53.090;6.074;2022-08-21T02:36:08;13.50;;;5.80;;
53108;SDS011;39007;53.090;6.074;2022-08-21T02:38:36;13.57;;;6.00;;
53108;SDS011;39007;53.090;6.074;2022-08-21T02:41:03;11.95;;;5.90;;
53108;SDS011;39007;53.090;6.074;2022-08-21T02:43:29;12.82;;;6.00;;
53108;SDS011;39007;53.090;6.074;2022-08-21T02:45:56;16.63;;;6.57;;
53108;SDS011;39007;53.090;6.074;2022-08-21T02:48:26;13.02;;;6.05;;
53108;SDS011;39007;53.090;6.074;2022-08-21T02:50:57;14.25;;;6.78;;
53108;SDS011;39007;53.090;6.074;2022-08-21T02:53:23;10.88;;;6.35;;
53108;SDS011;39007;53.090;6.074;2022-08-21T02:55:50;10.90;;;6.22;;
53108;SDS011;39007;53.090;6.074;2022-08-21T02:58:17;14.23;;;6.85;;
53108;SDS011;39007;53.090;6.074;2022-08-21T03:00:43;15.55;;;6.43;;
53108;SDS011;39007;53.090;6.074;2022-08-21T03:03:10;12.43;;;5.70;;
53108;SDS011;39007;53.090;6.074;2022-08-21T03:05:39;12.30;;;5.75;;
53108;SDS011;39007;53.090;6.074;2022-08-21T03:08:07;10.90;;;5.50;;
53108;SDS011;39007;53.090;6.074;2022-08-21T03:10:35;10.57;;;5.85;;
53108;SDS011;39007;53.090;6.074;2022-08-21T03:13:02;13.90;;;6.28;;
53108;SDS011;39007;53.090;6.074;2022-08-21T03:15:28;13.75;;;6.15;;
53108;SDS011;39007;53.090;6.074;2022-08-21T03:17:55;12.95;;;5.85;;
53108;SDS011;39007;53.090;6.074;2022-08-21T03:20:22;12.40;;;6.18;;
53108;SDS011;39007;53.090;6.074;2022-08-21T03:22:49;14.55;;;6.40;;
53108;SDS011;39007;53.090;6.074;2022-08-21T03:25:15;10.60;;;5.70;;
53108;SDS011;39007;53.090;6.074;2022-08-21T03:27:42;10.75;;;5.57;;
53108;SDS011;39007;53.090;6.074;2022-08-21T03:30:09;10.73;;;5.78;;
53108;SDS011;39007;53.090;6.074;2022-08-21T03:32:35;10.25;;;5.15;;
53108;SDS011;39007;53.090;6.074;2022-08-21T03:35:02;14.15;;;6.15;;
53108;SDS011;39007;53.090;6.074;2022-08-21T03:37:28;10.05;;;5.75;;
53108;SDS011;39007;53.090;6.074;2022-08-21T03:39:54;11.32;;;5.68;;
53108;SDS011;39007;53.090;6.074;2022-08-21T03:42:21;13.00;;;5.35;;
53108;SDS011;39007;53.090;6.074;2022-08-21T03:44:47;9.77;;;5.55;;
53108;SDS011;39007;53.090;6.074;2022-08-21T03:47:13;12.05;;;5.25;;
53108;SDS011;39007;53.090;6.074;2022-08-21T03:49:39;12.82;;;5.75;;
53108;SDS011;39007;53.090;6.074;2022-08-21T03:52:06;9.43;;;5.47;;
53108;SDS011;39007;53.090;6.074;2022-08-21T03:54:32;12.07;;;6.10;;
53108;SDS011;39007;53.090;6.074;2022-08-21T03:56:59;11.05;;;5.95;;
53108;SDS011;39007;53.090;6.074;2022-08-21T03:59:25;13.50;;;5.32;;
53108;SDS011;39007;53.090;6.074;2022-08-21T04:01:55;12.48;;;6.22;;
53108;SDS011;39007;53.090;6.074;2022-08-21T04:04:22;11.52;;;5.40;;
53108;SDS011;39007;53.090;6.074;2022-08-21T04:06:48;11.57;;;6.18;;
53108;SDS011;39007;53.090;6.074;2022-08-21T04:09:15;12.27;;;5.88;;
53108;SDS011;39007;53.090;6.074;2022-08-21T04:11:41;12.95;;;6.13;;
53108;SDS011;39007;53.090;6.074;2022-08-21T04:14:07;10.00;;;5.75;;
53108;SDS011;39007;53.090;6.074;2022-08-21T04:16:33;12.02;;;6.10;;
53108;SDS011;39007;53.090;6.074;2022-08-21T04:18:59;16.23;;;6.07;;
53108;SDS011;39007;53.090;6.074;2022-08-21T04:21:26;11.80;;;6.25;;
53108;SDS011;39007;53.090;6.074;2022-08-21T04:23:54;12.70;;;6.70;;
53108;SDS011;39007;53.090;6.074;2022-08-21T04:26:20;11.52;;;6.07;;
53108;SDS011;39007;53.090;6.074;2022-08-21T04:28:46;13.77;;;6.43;;
53108;SDS011;39007;53.090;6.074;2022-08-21T04:31:12;13.45;;;6.18;;
53108;SDS011;39007;53.090;6.074;2022-08-21T04:33:38;14.35;;;6.88;;
53108;SDS011;39007;53.090;6.074;2022-08-21T04:36:04;11.38;;;6.05;;
53108;SDS011;39007;53.090;6.074;2022-08-21T04:38:32;14.07;;;7.03;;
53108;SDS011;39007;53.090;6.074;2022-08-21T04:40:58;16.67;;;6.10;;
53108;SDS011;39007;53.090;6.074;2022-08-21T04:43:24;13.48;;;6.38;;
53108;SDS011;39007;53.090;6.074;2022-08-21T04:45:50;11.57;;;6.25;;
53108;SDS011;39007;53.090;6.074;2022-08-21T04:48:18;13.93;;;6.80;;
53108;SDS011;39007;53.090;6.074;2022-08-21T04:51:02;14.95;;;6.20;;
53108;SDS011;39007;53.090;6.074;2022-08-21T04:53:32;12.50;;;6.80;;
53108;SDS011;39007;53.090;6.074;2022-08-21T04:56:42;15.18;;;6.25;;
53108;SDS011;39007;53.090;6.074;2022-08-21T04:58:48;13.77;;;6.63;;
53108;SDS011;39007;53.090;6.074;2022-08-21T05:01:17;14.13;;;6.53;;
53108;SDS011;39007;53.090;6.074;2022-08-21T05:03:44;12.40;;;6.57;;
53108;SDS011;39007;53.090;6.074;2022-08-21T05:06:11;14.93;;;6.63;;
53108;SDS011;39007;53.090;6.074;2022-08-21T05:08:38;12.52;;;5.93;;
53108;SDS011;39007;53.090;6.074;2022-08-21T05:11:05;14.10;;;6.20;;
53108;SDS011;39007;53.090;6.074;2022-08-21T05:13:31;15.57;;;6.25;;
53108;SDS011;39007;53.090;6.074;2022-08-21T05:15:58;12.38;;;5.80;;
53108;SDS011;39007;53.090;6.074;2022-08-21T05:18:24;13.18;;;5.90;;
53108;SDS011;39007;53.090;6.074;2022-08-21T05:20:50;15.93;;;6.57;;
53108;SDS011;39007;53.090;6.074;2022-08-21T05:23:16;14.50;;;6.15;;
53108;SDS011;39007;53.090;6.074;2022-08-21T05:25:42;12.50;;;6.32;;
53108;SDS011;39007;53.090;6.074;2022-08-21T05:28:09;15.40;;;6.88;;
53108;SDS011;39007;53.090;6.074;2022-08-21T05:30:36;15.02;;;5.95;;
53108;SDS011;39007;53.090;6.074;2022-08-21T05:33:03;15.60;;;6.20;;
53108;SDS011;39007;53.090;6.074;2022-08-21T05:35:30;12.43;;;5.80;;
53108;SDS011;39007;53.090;6.074;2022-08-21T05:37:57;14.63;;;6.22;;
53108;SDS011;39007;53.090;6.074;2022-08-21T05:40:23;14.00;;;6.32;;
53108;SDS011;39007;53.090;6.074;2022-08-21T05:42:50;16.45;;;6.35;;
53108;SDS011;39007;53.090;6.074;2022-08-21T05:45:16;13.63;;;6.03;;
53108;SDS011;39007;53.090;6.074;2022-08-21T05:47:43;13.38;;;5.90;;
53108;SDS011;39007;53.090;6.074;2022-08-21T05:50:09;14.25;;;5.90;;
53108;SDS011;39007;53.090;6.074;2022-08-21T05:52:35;16.88;;;6.75;;
53108;SDS011;39007;53.090;6.074;2022-08-21T05:55:02;15.05;;;5.95;;
53108;SDS011;39007;53.090;6.074;2022-08-21T05:57:28;13.50;;;6.32;;
53108;SDS011;39007;53.090;6.074;2022-08-21T05:59:54;18.50;;;6.63;;
53108;SDS011;39007;53.090;6.074;2022-08-21T06:02:21;16.55;;;6.15;;
53108;SDS011;39007;53.090;6.074;2022-08-21T06:04:47;18.70;;;6.60;;
53108;SDS011;39007;53.090;6.074;2022-08-21T06:07:14;15.90;;;6.35;;
53108;SDS011;39007;53.090;6.074;2022-08-21T06:09:40;14.27;;;5.80;;
53108;SDS011;39007;53.090;6.074;2022-08-21T06:12:07;13.20;;;5.95;;
53108;SDS011;39007;53.090;6.074;2022-08-21T06:14:34;12.23;;;6.35;;
53108;SDS011;39007;53.090;6.074;2022-08-21T06:17:04;13.25;;;5.75;;
53108;SDS011;39007;53.090;6.074;2022-08-21T06:19:30;11.70;;;5.07;;
53108;SDS011;39007;53.090;6.074;2022-08-21T06:21:56;13.43;;;5.90;;
53108;SDS011;39007;53.090;6.074;2022-08-21T06:24:22;13.80;;;5.75;;
53108;SDS011;39007;53.090;6.074;2022-08-21T06:26:49;14.20;;;5.90;;
53108;SDS011;39007;53.090;6.074;2022-08-21T06:29:15;12.55;;;5.18;;
53108;SDS011;39007;53.090;6.074;2022-08-21T06:31:43;11.88;;;5.45;;
53108;SDS011;39007;53.090;6.074;2022-08-21T06:34:09;11.13;;;5.00;;
53108;SDS011;39007;53.090;6.074;2022-08-21T06:36:36;12.88;;;5.43;;
53108;SDS011;39007;53.090;6.074;2022-08-21T06:39:02;18.10;;;5.40;;
53108;SDS011;39007;53.090;6.074;2022-08-21T06:41:28;12.48;;;5.28;;
53108;SDS011;39007;53.090;6.074;2022-08-21T06:43:55;16.17;;;5.53;;
53108;SDS011;39007;53.090;6.074;2022-08-21T06:46:22;14.52;;;5.28;;
53108;SDS011;39007;53.090;6.074;2022-08-21T06:48:49;16.63;;;4.72;;
53108;SDS011;39007;53.090;6.074;2022-08-21T06:51:15;15.23;;;4.88;;
53108;SDS011;39007;53.090;6.074;2022-08-21T06:53:42;13.70;;;4.80;;
53108;SDS011;39007;53.090;6.074;2022-08-21T06:56:09;10.90;;;4.13;;
53108;SDS011;39007;53.090;6.074;2022-08-21T06:58:35;9.70;;;4.18;;
53108;SDS011;39007;53.090;6.074;2022-08-21T07:01:01;13.02;;;4.75;;
53108;SDS011;39007;53.090;6.074;2022-08-21T07:03:35;11.00;;;4.57;;
53108;SDS011;39007;53.090;6.074;2022-08-21T07:06:02;12.90;;;4.22;;
53108;SDS011;39007;53.090;6.074;2022-08-21T07:08:28;10.90;;;3.85;;
53108;SDS011;39007;53.090;6.074;2022-08-21T07:10:55;13.50;;;4.38;;
53108;SDS011;39007;53.090;6.074;2022-08-21T07:13:21;11.70;;;3.95;;
53108;SDS011;39007;53.090;6.074;2022-08-21T07:15:48;11.35;;;4.25;;
53108;SDS011;39007;53.090;6.074;2022-08-21T07:18:14;13.10;;;4.10;;
53108;SDS011;39007;53.090;6.074;2022-08-21T07:20:48;15.20;;;4.05;;
53108;SDS011;39007;53.090;6.074;2022-08-21T07:23:18;12.77;;;4.05;;
53108;SDS011;39007;53.090;6.074;2022-08-21T07:25:45;15.75;;;4.07;;
53108;SDS011;39007;53.090;6.074;2022-08-21T07:28:11;9.38;;;3.95;;
53108;SDS011;39007;53.090;6.074;2022-08-21T07:30:37;13.32;;;4.55;;
53108;SDS011;39007;53.090;6.074;2022-08-21T07:33:04;12.20;;;4.38;;
53108;SDS011;39007;53.090;6.074;2022-08-21T07:35:30;12.38;;;4.13;;
53108;SDS011;39007;53.090;6.074;2022-08-21T07:37:58;15.23;;;4.35;;
53108;SDS011;39007;53.090;6.074;2022-08-21T07:40:24;18.10;;;4.22;;
53108;SDS011;39007;53.090;6.074;2022-08-21T07:42:50;11.73;;;3.50;;
53108;SDS011;39007;53.090;6.074;2022-08-21T07:45:17;14.52;;;3.90;;
53108;SDS011;39007;53.090;6.074;2022-08-21T07:47:44;12.20;;;3.67;;
53108;SDS011;39007;53.090;6.074;2022-08-21T07:50:10;12.65;;;4.05;;
53108;SDS011;39007;53.090;6.074;2022-08-21T07:52:37;13.93;;;3.80;;
53108;SDS011;39007;53.090;6.074;2022-08-21T07:55:03;10.40;;;3.60;;
53108;SDS011;39007;53.090;6.074;2022-08-21T07:57:30;12.20;;;3.90;;
53108;SDS011;39007;53.090;6.074;2022-08-21T07:59:56;13.10;;;3.92;;
53108;SDS011;39007;53.090;6.074;2022-08-21T08:02:23;11.50;;;4.18;;
53108;SDS011;39007;53.090;6.074;2022-08-21T08:04:49;10.48;;;3.83;;
53108;SDS011;39007;53.090;6.074;2022-08-21T08:07:15;10.88;;;3.42;;
53108;SDS011;39007;53.090;6.074;2022-08-21T08:09:41;13.23;;;3.85;;
53108;SDS011;39007;53.090;6.074;2022-08-21T08:12:08;10.18;;;3.22;;
53108;SDS011;39007;53.090;6.074;2022-08-21T08:14:35;12.18;;;4.10;;
53108;SDS011;39007;53.090;6.074;2022-08-21T08:17:01;16.63;;;3.60;;
53108;SDS011;39007;53.090;6.074;2022-08-21T08:19:28;12.35;;;3.65;;
53108;SDS011;39007;53.090;6.074;2022-08-21T08:21:54;12.90;;;3.85;;
53108;SDS011;39007;53.090;6.074;2022-08-21T08:24:20;14.90;;;4.22;;
53108;SDS011;39007;53.090;6.074;2022-08-21T08:26:47;9.98;;;2.97;;
53108;SDS011;39007;53.090;6.074;2022-08-21T08:29:13;13.52;;;3.33;;
53108;SDS011;39007;53.090;6.074;2022-08-21T08:31:39;11.73;;;3.70;;
53108;SDS011;39007;53.090;6.074;2022-08-21T08:34:05;13.52;;;3.42;;
53108;SDS011;39007;53.090;6.074;2022-08-21T08:36:33;13.32;;;3.42;;
53108;SDS011;39007;53.090;6.074;2022-08-21T08:39:00;13.90;;;3.50;;
53108;SDS011;39007;53.090;6.074;2022-08-21T08:41:26;13.90;;;3.80;;
53108;SDS011;39007;53.090;6.074;2022-08-21T08:43:58;13.25;;;3.47;;
53108;SDS011;39007;53.090;6.074;2022-08-21T08:46:29;12.82;;;3.30;;
53108;SDS011;39007;53.090;6.074;2022-08-21T08:49:02;11.32;;;3.33;;
53108;SDS011;39007;53.090;6.074;2022-08-21T08:51:40;16.10;;;3.38;;
53108;SDS011;39007;53.090;6.074;2022-08-21T08:54:13;13.95;;;3.20;;
53108;SDS011;39007;53.090;6.074;2022-08-21T08:56:40;11.90;;;2.95;;
53108;SDS011;39007;53.090;6.074;2022-08-21T08:59:18;14.40;;;3.45;;
53108;SDS011;39007;53.090;6.074;2022-08-21T09:01:44;10.88;;;2.97;;
53108;SDS011;39007;53.090;6.074;2022-08-21T09:04:11;12.27;;;3.10;;
53108;SDS011;39007;53.090;6.074;2022-08-21T09:06:53;12.30;;;3.10;;
53108;SDS011;39007;53.090;6.074;2022-08-21T09:17:26;13.43;;;3.28;;
53108;SDS011;39007;53.090;6.074;2022-08-21T09:27:40;12.07;;;2.83;;
53108;SDS011;39007;53.090;6.074;2022-08-21T09:30:07;13.40;;;2.80;;
53108;SDS011;39007;53.090;6.074;2022-08-21T09:32:33;14.30;;;2.97;;
53108;SDS011;39007;53.090;6.074;2022-08-21T09:35:03;14.23;;;3.20;;
53108;SDS011;39007;53.090;6.074;2022-08-21T09:37:30;10.27;;;2.90;;
53108;SDS011;39007;53.090;6.074;2022-08-21T09:39:57;16.15;;;3.47;;
53108;SDS011;39007;53.090;6.074;2022-08-21T09:42:25;11.40;;;3.33;;
53108;SDS011;39007;53.090;6.074;2022-08-21T09:45:04;13.32;;;2.97;;
53108;SDS011;39007;53.090;6.074;2022-08-21T09:47:30;13.07;;;3.10;;
53108;SDS011;39007;53.090;6.074;2022-08-21T09:50:06;9.93;;;2.80;;
53108;SDS011;39007;53.090;6.074;2022-08-21T09:52:41;14.00;;;2.88;;
53108;SDS011;39007;53.090;6.074;2022-08-21T09:55:08;9.23;;;2.50;;
53108;SDS011;39007;53.090;6.074;2022-08-21T09:58:00;10.73;;;2.95;;
53108;SDS011;39007;53.090;6.074;2022-08-21T10:00:28;11.85;;;2.70;;
53108;SDS011;39007;53.090;6.074;2022-08-21T10:03:16;12.00;;;2.42;;
53108;SDS011;39007;53.090;6.074;2022-08-21T10:05:55;12.40;;;3.22;;
53108;SDS011;39007;53.090;6.074;2022-08-21T10:08:22;11.25;;;2.80;;
53108;SDS011;39007;53.090;6.074;2022-08-21T10:11:04;13.82;;;2.65;;
53108;SDS011;39007;53.090;6.074;2022-08-21T10:24:18;13.00;;;2.80;;
53108;SDS011;39007;53.090;6.074;2022-08-21T10:26:57;15.77;;;3.15;;
53108;SDS011;39007;53.090;6.074;2022-08-21T10:34:42;11.20;;;2.78;;
53108;SDS011;39007;53.090;6.074;2022-08-21T10:37:17;11.30;;;3.20;;
53108;SDS011;39007;53.090;6.074;2022-08-21T10:39:55;9.23;;;2.53;;
53108;SDS011;39007;53.090;6.074;2022-08-21T10:42:27;11.77;;;3.15;;
53108;SDS011;39007;53.090;6.074;2022-08-21T10:54:56;11.50;;;3.22;;
53108;SDS011;39007;53.090;6.074;2022-08-21T11:00:09;15.35;;;3.05;;
53108;SDS011;39007;53.090;6.074;2022-08-21T11:02:44;8.32;;;2.60;;
53108;SDS011;39007;53.090;6.074;2022-08-21T11:05:15;15.60;;;3.15;;
53108;SDS011;39007;53.090;6.074;2022-08-21T11:07:47;11.20;;;2.63;;
53108;SDS011;39007;53.090;6.074;2022-08-21T11:10:19;9.55;;;2.70;;
53108;SDS011;39007;53.090;6.074;2022-08-21T11:12:48;12.48;;;3.03;;
53108;SDS011;39007;53.090;6.074;2022-08-21T11:17:52;10.25;;;2.80;;
53108;SDS011;39007;53.090;6.074;2022-08-21T11:23:18;10.35;;;2.58;;
53108;SDS011;39007;53.090;6.074;2022-08-21T11:28:41;8.40;;;2.22;;
53108;SDS011;39007;53.090;6.074;2022-08-21T11:39:02;6.70;;;1.98;;
53108;SDS011;39007;53.090;6.074;2022-08-21T11:41:34;9.57;;;2.38;;
53108;SDS011;39007;53.090;6.074;2022-08-21T11:44:07;8.57;;;2.53;;
53108;SDS011;39007;53.090;6.074;2022-08-21T11:46:40;9.10;;;2.15;;
53108;SDS011;39007;53.090;6.074;2022-08-21T11:49:19;9.48;;;2.22;;
53108;SDS011;39007;53.090;6.074;2022-08-21T11:51:52;8.82;;;2.30;;
53108;SDS011;39007;53.090;6.074;2022-08-21T11:54:24;7.90;;;2.08;;
53108;SDS011;39007;53.090;6.074;2022-08-21T11:56:53;7.65;;;2.10;;
53108;SDS011;39007;53.090;6.074;2022-08-21T11:59:28;5.70;;;1.90;;
53108;SDS011;39007;53.090;6.074;2022-08-21T12:01:55;7.63;;;2.10;;
53108;SDS011;39007;53.090;6.074;2022-08-21T12:04:32;8.25;;;2.00;;
53108;SDS011;39007;53.090;6.074;2022-08-21T12:07:15;11.32;;;2.00;;
53108;SDS011;39007;53.090;6.074;2022-08-21T12:09:51;6.72;;;1.63;;
53108;SDS011;39007;53.090;6.074;2022-08-21T12:12:25;7.97;;;1.90;;
53108;SDS011;39007;53.090;6.074;2022-08-21T12:15:15;11.27;;;2.10;;
53108;SDS011;39007;53.090;6.074;2022-08-21T12:17:38;5.93;;;1.70;;
53108;SDS011;39007;53.090;6.074;2022-08-21T12:23:05;9.02;;;2.40;;
53108;SDS011;39007;53.090;6.074;2022-08-21T12:25:36;11.30;;;2.40;;
53108;SDS011;39007;53.090;6.074;2022-08-21T12:28:06;6.70;;;1.90;;
53108;SDS011;39007;53.090;6.074;2022-08-21T12:30:34;8.68;;;2.53;;
53108;SDS011;39007;53.090;6.074;2022-08-21T12:35:46;8.52;;;2.45;;
53108;SDS011;39007;53.090;6.074;2022-08-21T12:40:46;9.82;;;2.22;;
53108;SDS011;39007;53.090;6.074;2022-08-21T12:43:14;10.50;;;2.65;;
53108;SDS011;39007;53.090;6.074;2022-08-21T12:45:43;8.73;;;2.38;;
53108;SDS011;39007;53.090;6.074;2022-08-21T12:50:58;10.82;;;2.60;;
53108;SDS011;39007;53.090;6.074;2022-08-21T12:55:54;6.90;;;2.17;;
53108;SDS011;39007;53.090;6.074;2022-08-21T12:58:26;8.48;;;2.53;;
53108;SDS011;39007;53.090;6.074;2022-08-21T13:00:53;10.23;;;2.50;;
53108;SDS011;39007;53.090;6.074;2022-08-21T13:03:20;8.93;;;2.38;;
53108;SDS011;39007;53.090;6.074;2022-08-21T13:05:47;7.93;;;2.10;;
53108;SDS011;39007;53.090;6.074;2022-08-21T13:08:16;11.23;;;2.55;;
53108;SDS011;39007;53.090;6.074;2022-08-21T13:10:42;8.50;;;2.80;;
53108;SDS011;39007;53.090;6.074;2022-08-21T13:13:14;12.57;;;2.55;;
53108;SDS011;39007;53.090;6.074;2022-08-21T13:15:43;9.93;;;2.70;;
53108;SDS011;39007;53.090;6.074;2022-08-21T13:18:18;8.52;;;2.55;;
53108;SDS011;39007;53.090;6.074;2022-08-21T13:20:45;13.50;;;2.88;;
53108;SDS011;39007;53.090;6.074;2022-08-21T13:23:25;10.93;;;2.30;;
53108;SDS011;39007;53.090;6.074;2022-08-21T13:25:52;12.85;;;2.60;;
53108;SDS011;39007;53.090;6.074;2022-08-21T13:28:18;7.80;;;2.30;;
53108;SDS011;39007;53.090;6.074;2022-08-21T13:30:49;7.63;;;2.35;;
53108;SDS011;39007;53.090;6.074;2022-08-21T13:33:18;7.70;;;2.25;;
53108;SDS011;39007;53.090;6.074;2022-08-21T13:38:12;6.45;;;2.00;;
53108;SDS011;39007;53.090;6.074;2022-08-21T13:43:14;7.70;;;2.00;;
53108;SDS011;39007;53.090;6.074;2022-08-21T13:45:43;9.02;;;2.40;;
53108;SDS011;39007;53.090;6.074;2022-08-21T13:48:09;7.50;;;2.00;;
53108;SDS011;39007;53.090;6.074;2022-08-21T13:50:36;7.65;;;2.50;;
53108;SDS011;39007;53.090;6.074;2022-08-21T13:53:04;9.25;;;2.00;;
53108;SDS011;39007;53.090;6.074;2022-08-21T13:55:41;9.40;;;2.33;;
53108;SDS011;39007;53.090;6.074;2022-08-21T13:58:07;8.57;;;2.30;;
53108;SDS011;39007;53.090;6.074;2022-08-21T14:00:35;8.05;;;2.53;;
53108;SDS011;39007;53.090;6.074;2022-08-21T14:03:09;7.45;;;1.90;;
53108;SDS011;39007;53.090;6.074;2022-08-21T14:05:43;7.10;;;2.10;;
53108;SDS011;39007;53.090;6.074;2022-08-21T14:10:43;8.48;;;2.15;;
53108;SDS011;39007;53.090;6.074;2022-08-21T14:13:20;8.00;;;2.10;;
53108;SDS011;39007;53.090;6.074;2022-08-21T14:15:54;6.45;;;2.15;;
53108;SDS011;39007;53.090;6.074;2022-08-21T14:18:21;9.40;;;2.28;;
53108;SDS011;39007;53.090;6.074;2022-08-21T14:20:50;6.80;;;2.00;;
53108;SDS011;39007;53.090;6.074;2022-08-21T14:23:26;6.53;;;2.10;;
53108;SDS011;39007;53.090;6.074;2022-08-21T14:25:52;8.68;;;2.20;;
53108;SDS011;39007;53.090;6.074;2022-08-21T14:30:45;7.68;;;1.98;;
53108;SDS011;39007;53.090;6.074;2022-08-21T14:33:13;7.50;;;2.08;;
53108;SDS011;39007;53.090;6.074;2022-08-21T14:35:40;7.40;;;2.20;;
53108;SDS011;39007;53.090;6.074;2022-08-21T14:38:17;6.45;;;1.85;;
53108;SDS011;39007;53.090;6.074;2022-08-21T14:40:43;7.45;;;2.15;;
53108;SDS011;39007;53.090;6.074;2022-08-21T14:43:10;7.88;;;2.05;;
53108;SDS011;39007;53.090;6.074;2022-08-21T14:45:36;11.52;;;2.35;;
53108;SDS011;39007;53.090;6.074;2022-08-21T14:48:06;8.77;;;2.03;;
53108;SDS011;39007;53.090;6.074;2022-08-21T14:50:32;9.02;;;1.90;;
53108;SDS011;39007;53.090;6.074;2022-08-21T14:52:58;6.78;;;1.88;;
53108;SDS011;39007;53.090;6.074;2022-08-21T14:55:25;8.13;;;2.17;;
53108;SDS011;39007;53.090;6.074;2022-08-21T14:57:52;6.25;;;1.83;;
53108;SDS011;39007;53.090;6.074;2022-08-21T15:00:21;7.70;;;2.45;;
53108;SDS011;39007;53.090;6.074;2022-08-21T15:02:48;5.55;;;2.00;;
53108;SDS011;39007;53.090;6.074;2022-08-21T15:05:15;8.30;;;2.20;;
53108;SDS011;39007;53.090;6.074;2022-08-21T15:07:41;5.70;;;1.90;;
53108;SDS011;39007;53.090;6.074;2022-08-21T15:10:07;9.45;;;2.47;;
53108;SDS011;39007;53.090;6.074;2022-08-21T15:12:34;15.77;;;3.17;;
53108;SDS011;39007;53.090;6.074;2022-08-21T15:15:01;8.00;;;2.38;;
53108;SDS011;39007;53.090;6.074;2022-08-21T15:17:27;4.28;;;1.80;;
53108;SDS011;39007;53.090;6.074;2022-08-21T15:19:53;9.43;;;2.22;;
53108;SDS011;39007;53.090;6.074;2022-08-21T15:22:19;8.30;;;2.40;;
53108;SDS011;39007;53.090;6.074;2022-08-21T15:24:45;9.35;;;2.28;;
53108;SDS011;39007;53.090;6.074;2022-08-21T15:27:11;8.48;;;2.20;;
53108;SDS011;39007;53.090;6.074;2022-08-21T15:29:38;6.43;;;1.88;;
53108;SDS011;39007;53.090;6.074;2022-08-21T15:34:42;7.90;;;2.25;;
53108;SDS011;39007;53.090;6.074;2022-08-21T15:37:08;9.07;;;2.20;;
53108;SDS011;39007;53.090;6.074;2022-08-21T15:39:34;7.93;;;2.20;;
53108;SDS011;39007;53.090;6.074;2022-08-21T15:42:01;12.30;;;2.47;;
53108;SDS011;39007;53.090;6.074;2022-08-21T15:44:28;10.63;;;2.30;;
53108;SDS011;39007;53.090;6.074;2022-08-21T15:46:54;10.25;;;2.25;;
53108;SDS011;39007;53.090;6.074;2022-08-21T15:49:21;6.97;;;2.03;;
53108;SDS011;39007;53.090;6.074;2022-08-21T15:51:47;11.77;;;2.50;;
53108;SDS011;39007;53.090;6.074;2022-08-21T15:54:13;11.02;;;2.63;;
53108;SDS011;39007;53.090;6.074;2022-08-21T15:56:39;11.77;;;2.58;;
53108;SDS011;39007;53.090;6.074;2022-08-21T15:59:07;12.50;;;2.38;;
53108;SDS011;39007;53.090;6.074;2022-08-21T16:01:34;12.95;;;2.67;;
53108;SDS011;39007;53.090;6.074;2022-08-21T16:04:01;9.60;;;2.55;;
53108;SDS011;39007;53.090;6.074;2022-08-21T16:06:28;11.13;;;2.50;;
53108;SDS011;39007;53.090;6.074;2022-08-21T16:08:55;12.38;;;2.47;;
53108;SDS011;39007;53.090;6.074;2022-08-21T16:11:21;9.70;;;2.20;;
53108;SDS011;39007;53.090;6.074;2022-08-21T16:13:47;8.93;;;2.00;;